sensor_id;sensor_type;location;lat;lon;timestamp;temperature;humidity
27224;DHT22;14965;50.660;13.226;2022-11-15T00:00:01;6.50;99.90
27224;DHT22;14965;50.660;13.226;2022-11-15T00:02:27;6.60;99.90
27224;DHT22;14965;50.660;13.226;2022-11-15T00:04:53;6.60;99.90
27224;DHT22;14965;50.660;13.226;2022-11-15T00:07:20;6.70;99.90
27224;DHT22;14965;50.660;13.226;2022-11-15T00:09:46;6.70;99.90
27224;DHT22;14965;50.660;13.226;2022-11-15T00:12:12;6.70;99.90
27224;DHT22;14965;50.660;13.226;2022-11-15T00:14:38;6.70;99.90
27224;DHT22;14965;50.660;13.226;2022-11-15T00:17:04;6.70;99.90
27224;DHT22;14965;50.660;13.226;2022-11-15T00:19:30;6.70;99.90
27224;DHT22;14965;50.660;13.226;2022-11-15T00:21:55;6.70;99.90
27224;DHT22;14965;50.660;13.226;2022-11-15T00:24:23;6.70;99.90
27224;DHT22;14965;50.660;13.226;2022-11-15T00:26:52;6.70;99.90
27224;DHT22;14965;50.660;13.226;2022-11-15T00:29:18;6.60;99.90
27224;DHT22;14965;50.660;13.226;2022-11-15T00:31:47;6.50;99.90
27224;DHT22;14965;50.660;13.226;2022-11-15T00:34:13;6.40;99.90
27224;DHT22;14965;50.660;13.226;2022-11-15T00:36:39;6.30;99.90
27224;DHT22;14965;50.660;13.226;2022-11-15T00:39:05;6.20;99.90
27224;DHT22;14965;50.660;13.226;2022-11-15T00:41:33;6.20;99.90
27224;DHT22;14965;50.660;13.226;2022-11-15T00:43:59;6.20;99.90
27224;DHT22;14965;50.660;13.226;2022-11-15T00:46:25;6.10;99.90
27224;DHT22;14965;50.660;13.226;2022-11-15T00:48:51;6.10;99.90
27224;DHT22;14965;50.660;13.226;2022-11-15T00:51:17;6.00;99.90
27224;DHT22;14965;50.660;13.226;2022-11-15T00:53:43;6.00;99.90
27224;DHT22;14965;50.660;13.226;2022-11-15T00:56:08;5.90;99.90
27224;DHT22;14965;50.660;13.226;2022-11-15T00:58:36;5.80;99.90
27224;DHT22;14965;50.660;13.226;2022-11-15T01:01:06;5.70;99.90
27224;DHT22;14965;50.660;13.226;2022-11-15T01:03:34;5.80;99.90
27224;DHT22;14965;50.660;13.226;2022-11-15T01:06:01;5.70;99.90
27224;DHT22;14965;50.660;13.226;2022-11-15T01:08:27;5.80;99.90
27224;DHT22;14965;50.660;13.226;2022-11-15T01:10:53;5.70;99.90
27224;DHT22;14965;50.660;13.226;2022-11-15T01:13:19;5.70;99.90
27224;DHT22;14965;50.660;13.226;2022-11-15T01:15:46;5.70;99.90
27224;DHT22;14965;50.660;13.226;2022-11-15T01:18:12;5.70;99.90
27224;DHT22;14965;50.660;13.226;2022-11-15T01:20:40;5.60;99.90
27224;DHT22;14965;50.660;13.226;2022-11-15T01:23:06;5.60;99.90
27224;DHT22;14965;50.660;13.226;2022-11-15T01:25:32;5.60;99.90
27224;DHT22;14965;50.660;13.226;2022-11-15T01:27:58;5.70;99.90
27224;DHT22;14965;50.660;13.226;2022-11-15T01:30:23;5.70;99.90
27224;DHT22;14965;50.660;13.226;2022-11-15T01:32:51;5.80;99.90
27224;DHT22;14965;50.660;13.226;2022-11-15T01:35:17;5.80;99.90
27224;DHT22;14965;50.660;13.226;2022-11-15T01:37:43;5.90;99.90
27224;DHT22;14965;50.660;13.226;2022-11-15T01:40:09;5.90;99.90
27224;DHT22;14965;50.660;13.226;2022-11-15T01:42:36;5.90;99.90
27224;DHT22;14965;50.660;13.226;2022-11-15T01:45:02;5.90;99.90
27224;DHT22;14965;50.660;13.226;2022-11-15T01:47:33;6.00;99.90
27224;DHT22;14965;50.660;13.226;2022-11-15T01:50:08;6.00;99.90
27224;DHT22;14965;50.660;13.226;2022-11-15T01:52:36;6.00;99.90
27224;DHT22;14965;50.660;13.226;2022-11-15T01:55:09;6.00;99.90
27224;DHT22;14965;50.660;13.226;2022-11-15T01:57:42;6.10;99.90
27224;DHT22;14965;50.660;13.226;2022-11-15T02:00:12;6.10;99.90
27224;DHT22;14965;50.660;13.226;2022-11-15T02:02:39;6.10;99.90
27224;DHT22;14965;50.660;13.226;2022-11-15T02:05:08;6.10;99.90
27224;DHT22;14965;50.660;13.226;2022-11-15T02:07:35;6.20;99.90
27224;DHT22;14965;50.660;13.226;2022-11-15T02:10:07;6.20;99.90
27224;DHT22;14965;50.660;13.226;2022-11-15T02:12:35;6.20;99.90
27224;DHT22;14965;50.660;13.226;2022-11-15T02:15:02;6.20;99.90
27224;DHT22;14965;50.660;13.226;2022-11-15T02:17:43;6.20;99.90
27224;DHT22;14965;50.660;13.226;2022-11-15T02:20:39;6.20;99.90
27224;DHT22;14965;50.660;13.226;2022-11-15T02:23:35;6.20;99.90
27224;DHT22;14965;50.660;13.226;2022-11-15T02:26:39;6.30;99.90
27224;DHT22;14965;50.660;13.226;2022-11-15T02:29:30;6.20;99.90
27224;DHT22;14965;50.660;13.226;2022-11-15T02:32:16;6.20;99.90
27224;DHT22;14965;50.660;13.226;2022-11-15T02:34:53;6.20;99.90
27224;DHT22;14965;50.660;13.226;2022-11-15T02:37:33;6.20;99.90
27224;DHT22;14965;50.660;13.226;2022-11-15T02:40:07;6.10;99.90
27224;DHT22;14965;50.660;13.226;2022-11-15T02:42:43;6.10;99.90
27224;DHT22;14965;50.660;13.226;2022-11-15T02:45:19;6.10;99.90
27224;DHT22;14965;50.660;13.226;2022-11-15T02:47:52;6.10;99.90
27224;DHT22;14965;50.660;13.226;2022-11-15T02:50:27;6.10;99.90
27224;DHT22;14965;50.660;13.226;2022-11-15T02:52:55;6.10;99.90
27224;DHT22;14965;50.660;13.226;2022-11-15T02:55:26;6.10;99.90
27224;DHT22;14965;50.660;13.226;2022-11-15T02:58:06;6.00;99.90
27224;DHT22;14965;50.660;13.226;2022-11-15T03:00:48;6.00;99.90
27224;DHT22;14965;50.660;13.226;2022-11-15T03:03:41;5.90;99.90
27224;DHT22;14965;50.660;13.226;2022-11-15T03:06:24;5.90;99.90
27224;DHT22;14965;50.660;13.226;2022-11-15T03:09:03;5.90;99.90
27224;DHT22;14965;50.660;13.226;2022-11-15T03:11:36;5.90;99.90
27224;DHT22;14965;50.660;13.226;2022-11-15T03:14:13;5.90;99.90
27224;DHT22;14965;50.660;13.226;2022-11-15T03:16:50;5.90;99.90
27224;DHT22;14965;50.660;13.226;2022-11-15T03:19:30;5.90;99.90
27224;DHT22;14965;50.660;13.226;2022-11-15T03:22:03;5.90;99.90
27224;DHT22;14965;50.660;13.226;2022-11-15T03:24:35;5.90;99.90
27224;DHT22;14965;50.660;13.226;2022-11-15T03:27:05;5.90;99.90
27224;DHT22;14965;50.660;13.226;2022-11-15T03:29:39;5.90;99.90
27224;DHT22;14965;50.660;13.226;2022-11-15T03:32:12;5.90;99.90
27224;DHT22;14965;50.660;13.226;2022-11-15T03:34:47;5.90;99.90
27224;DHT22;14965;50.660;13.226;2022-11-15T03:37:18;5.80;99.90
27224;DHT22;14965;50.660;13.226;2022-11-15T03:39:47;5.70;99.90
27224;DHT22;14965;50.660;13.226;2022-11-15T03:42:20;5.70;99.90
27224;DHT22;14965;50.660;13.226;2022-11-15T03:44:54;5.60;99.90
27224;DHT22;14965;50.660;13.226;2022-11-15T03:47:30;5.50;99.90
27224;DHT22;14965;50.660;13.226;2022-11-15T03:50:06;5.40;99.90
27224;DHT22;14965;50.660;13.226;2022-11-15T03:52:35;5.30;99.90
27224;DHT22;14965;50.660;13.226;2022-11-15T03:55:03;5.30;99.90
27224;DHT22;14965;50.660;13.226;2022-11-15T03:57:31;5.30;99.90
27224;DHT22;14965;50.660;13.226;2022-11-15T03:59:57;5.40;99.90
27224;DHT22;14965;50.660;13.226;2022-11-15T04:02:23;5.40;99.90
27224;DHT22;14965;50.660;13.226;2022-11-15T04:04:49;5.50;99.90
27224;DHT22;14965;50.660;13.226;2022-11-15T04:07:16;5.60;99.90
27224;DHT22;14965;50.660;13.226;2022-11-15T04:09:42;5.60;99.90
27224;DHT22;14965;50.660;13.226;2022-11-15T04:12:08;5.60;99.90
27224;DHT22;14965;50.660;13.226;2022-11-15T04:14:34;5.60;99.90
27224;DHT22;14965;50.660;13.226;2022-11-15T04:17:00;5.60;99.90
27224;DHT22;14965;50.660;13.226;2022-11-15T04:19:25;5.60;99.90
27224;DHT22;14965;50.660;13.226;2022-11-15T04:21:51;5.70;99.90
27224;DHT22;14965;50.660;13.226;2022-11-15T04:24:19;5.60;99.90
27224;DHT22;14965;50.660;13.226;2022-11-15T04:26:45;5.60;99.90
27224;DHT22;14965;50.660;13.226;2022-11-15T04:29:10;5.50;99.90
27224;DHT22;14965;50.660;13.226;2022-11-15T04:31:36;5.50;99.90
27224;DHT22;14965;50.660;13.226;2022-11-15T04:34:02;5.30;99.90
27224;DHT22;14965;50.660;13.226;2022-11-15T04:36:28;5.20;99.90
27224;DHT22;14965;50.660;13.226;2022-11-15T04:38:54;5.20;99.90
27224;DHT22;14965;50.660;13.226;2022-11-15T04:41:22;5.10;99.90
27224;DHT22;14965;50.660;13.226;2022-11-15T04:43:48;5.00;99.90
27224;DHT22;14965;50.660;13.226;2022-11-15T04:46:13;4.90;99.90
27224;DHT22;14965;50.660;13.226;2022-11-15T04:48:39;4.90;99.90
27224;DHT22;14965;50.660;13.226;2022-11-15T04:51:05;4.90;99.90
27224;DHT22;14965;50.660;13.226;2022-11-15T04:53:31;4.80;99.90
27224;DHT22;14965;50.660;13.226;2022-11-15T04:55:58;4.80;99.90
27224;DHT22;14965;50.660;13.226;2022-11-15T04:58:26;4.80;99.90
27224;DHT22;14965;50.660;13.226;2022-11-15T05:00:52;4.70;99.90
27224;DHT22;14965;50.660;13.226;2022-11-15T05:03:18;4.80;99.90
27224;DHT22;14965;50.660;13.226;2022-11-15T05:05:43;4.70;99.90
27224;DHT22;14965;50.660;13.226;2022-11-15T05:08:09;4.60;99.90
27224;DHT22;14965;50.660;13.226;2022-11-15T05:10:35;4.60;99.90
27224;DHT22;14965;50.660;13.226;2022-11-15T05:13:01;4.50;99.90
27224;DHT22;14965;50.660;13.226;2022-11-15T05:15:29;4.50;99.90
27224;DHT22;14965;50.660;13.226;2022-11-15T05:17:57;4.50;99.90
27224;DHT22;14965;50.660;13.226;2022-11-15T05:20:24;4.40;99.90
27224;DHT22;14965;50.660;13.226;2022-11-15T05:22:49;4.40;99.90
27224;DHT22;14965;50.660;13.226;2022-11-15T05:25:16;4.40;99.90
27224;DHT22;14965;50.660;13.226;2022-11-15T05:27:42;4.30;99.90
27224;DHT22;14965;50.660;13.226;2022-11-15T05:30:08;4.30;99.90
27224;DHT22;14965;50.660;13.226;2022-11-15T05:32:36;4.30;99.90
27224;DHT22;14965;50.660;13.226;2022-11-15T05:35:03;4.30;99.90
27224;DHT22;14965;50.660;13.226;2022-11-15T05:37:33;4.30;99.90
27224;DHT22;14965;50.660;13.226;2022-11-15T05:39:58;4.30;99.90
27224;DHT22;14965;50.660;13.226;2022-11-15T05:42:25;4.30;99.90
27224;DHT22;14965;50.660;13.226;2022-11-15T05:44:53;4.30;99.90
27224;DHT22;14965;50.660;13.226;2022-11-15T05:47:21;4.30;99.90
27224;DHT22;14965;50.660;13.226;2022-11-15T05:49:52;4.40;99.90
27224;DHT22;14965;50.660;13.226;2022-11-15T05:52:21;4.40;99.90
27224;DHT22;14965;50.660;13.226;2022-11-15T05:54:51;4.40;99.90
27224;DHT22;14965;50.660;13.226;2022-11-15T05:57:18;4.40;99.90
27224;DHT22;14965;50.660;13.226;2022-11-15T05:59:44;4.50;99.90
27224;DHT22;14965;50.660;13.226;2022-11-15T06:02:11;4.60;99.90
27224;DHT22;14965;50.660;13.226;2022-11-15T06:04:37;4.70;99.90
27224;DHT22;14965;50.660;13.226;2022-11-15T06:07:04;4.70;99.90
27224;DHT22;14965;50.660;13.226;2022-11-15T06:09:30;4.80;99.90
27224;DHT22;14965;50.660;13.226;2022-11-15T06:11:56;4.70;99.90
27224;DHT22;14965;50.660;13.226;2022-11-15T06:14:22;4.50;99.90
27224;DHT22;14965;50.660;13.226;2022-11-15T06:16:48;4.50;99.90
27224;DHT22;14965;50.660;13.226;2022-11-15T06:19:14;4.50;99.90
27224;DHT22;14965;50.660;13.226;2022-11-15T06:21:39;4.50;99.90
27224;DHT22;14965;50.660;13.226;2022-11-15T06:24:07;4.50;99.90
27224;DHT22;14965;50.660;13.226;2022-11-15T06:26:33;4.50;99.90
27224;DHT22;14965;50.660;13.226;2022-11-15T06:28:59;4.50;99.90
27224;DHT22;14965;50.660;13.226;2022-11-15T06:31:25;4.40;99.90
27224;DHT22;14965;50.660;13.226;2022-11-15T06:33:51;4.40;99.90
27224;DHT22;14965;50.660;13.226;2022-11-15T06:36:17;4.40;99.90
27224;DHT22;14965;50.660;13.226;2022-11-15T06:38:43;4.50;99.90
27224;DHT22;14965;50.660;13.226;2022-11-15T06:41:12;4.50;99.90
27224;DHT22;14965;50.660;13.226;2022-11-15T06:43:39;4.50;99.90
27224;DHT22;14965;50.660;13.226;2022-11-15T06:46:06;4.60;99.90
27224;DHT22;14965;50.660;13.226;2022-11-15T06:48:33;4.60;99.90
27224;DHT22;14965;50.660;13.226;2022-11-15T06:51:01;4.70;99.90
27224;DHT22;14965;50.660;13.226;2022-11-15T06:53:29;4.80;99.90
27224;DHT22;14965;50.660;13.226;2022-11-15T06:55:58;4.90;99.90
27224;DHT22;14965;50.660;13.226;2022-11-15T06:58:26;5.00;99.90
27224;DHT22;14965;50.660;13.226;2022-11-15T07:00:52;5.00;99.90
27224;DHT22;14965;50.660;13.226;2022-11-15T07:03:18;5.00;99.90
27224;DHT22;14965;50.660;13.226;2022-11-15T07:05:51;5.00;99.90
27224;DHT22;14965;50.660;13.226;2022-11-15T07:08:17;4.90;99.90
27224;DHT22;14965;50.660;13.226;2022-11-15T07:10:43;4.90;99.90
27224;DHT22;14965;50.660;13.226;2022-11-15T07:13:09;5.00;99.90
27224;DHT22;14965;50.660;13.226;2022-11-15T07:15:36;5.00;99.90
27224;DHT22;14965;50.660;13.226;2022-11-15T07:18:03;5.10;99.90
27224;DHT22;14965;50.660;13.226;2022-11-15T07:20:29;5.20;99.90
27224;DHT22;14965;50.660;13.226;2022-11-15T07:22:59;5.30;99.90
27224;DHT22;14965;50.660;13.226;2022-11-15T07:25:26;5.30;99.90
27224;DHT22;14965;50.660;13.226;2022-11-15T07:27:54;5.30;99.90
27224;DHT22;14965;50.660;13.226;2022-11-15T07:30:23;5.40;99.90
27224;DHT22;14965;50.660;13.226;2022-11-15T07:32:54;5.50;99.90
27224;DHT22;14965;50.660;13.226;2022-11-15T07:35:20;5.50;99.90
27224;DHT22;14965;50.660;13.226;2022-11-15T07:37:54;5.50;99.90
27224;DHT22;14965;50.660;13.226;2022-11-15T07:40:21;5.50;99.90
27224;DHT22;14965;50.660;13.226;2022-11-15T07:42:47;5.60;99.90
27224;DHT22;14965;50.660;13.226;2022-11-15T07:45:13;5.70;99.90
27224;DHT22;14965;50.660;13.226;2022-11-15T07:47:38;5.80;99.90
27224;DHT22;14965;50.660;13.226;2022-11-15T07:50:06;5.80;99.90
27224;DHT22;14965;50.660;13.226;2022-11-15T07:52:33;5.90;99.90
27224;DHT22;14965;50.660;13.226;2022-11-15T07:54:58;5.90;99.90
27224;DHT22;14965;50.660;13.226;2022-11-15T07:57:24;6.00;99.90
27224;DHT22;14965;50.660;13.226;2022-11-15T07:59:50;6.10;99.90
27224;DHT22;14965;50.660;13.226;2022-11-15T08:02:16;6.10;99.90
27224;DHT22;14965;50.660;13.226;2022-11-15T08:04:42;6.20;99.90
27224;DHT22;14965;50.660;13.226;2022-11-15T08:07:09;6.30;99.90
27224;DHT22;14965;50.660;13.226;2022-11-15T08:09:35;6.40;99.90
27224;DHT22;14965;50.660;13.226;2022-11-15T08:12:01;6.40;99.90
27224;DHT22;14965;50.660;13.226;2022-11-15T08:14:27;6.50;99.90
27224;DHT22;14965;50.660;13.226;2022-11-15T08:16:54;6.60;99.90
27224;DHT22;14965;50.660;13.226;2022-11-15T08:19:20;6.70;99.90
27224;DHT22;14965;50.660;13.226;2022-11-15T08:21:46;6.80;99.90
27224;DHT22;14965;50.660;13.226;2022-11-15T08:24:14;6.90;99.90
27224;DHT22;14965;50.660;13.226;2022-11-15T08:26:40;7.00;99.90
27224;DHT22;14965;50.660;13.226;2022-11-15T08:29:08;7.10;99.90
27224;DHT22;14965;50.660;13.226;2022-11-15T08:31:34;7.20;99.90
27224;DHT22;14965;50.660;13.226;2022-11-15T08:34:01;7.20;99.90
27224;DHT22;14965;50.660;13.226;2022-11-15T08:36:27;7.30;99.90
27224;DHT22;14965;50.660;13.226;2022-11-15T08:38:53;7.40;99.90
27224;DHT22;14965;50.660;13.226;2022-11-15T08:41:25;7.50;99.90
27224;DHT22;14965;50.660;13.226;2022-11-15T08:43:53;7.60;99.90
27224;DHT22;14965;50.660;13.226;2022-11-15T08:46:19;7.60;99.90
27224;DHT22;14965;50.660;13.226;2022-11-15T08:48:45;7.70;99.90
27224;DHT22;14965;50.660;13.226;2022-11-15T08:51:11;7.80;99.90
27224;DHT22;14965;50.660;13.226;2022-11-15T08:53:37;7.90;99.90
27224;DHT22;14965;50.660;13.226;2022-11-15T08:56:07;8.00;99.90
27224;DHT22;14965;50.660;13.226;2022-11-15T08:58:35;8.10;99.90
27224;DHT22;14965;50.660;13.226;2022-11-15T09:01:02;8.20;99.90
27224;DHT22;14965;50.660;13.226;2022-11-15T09:03:29;8.30;99.90
27224;DHT22;14965;50.660;13.226;2022-11-15T09:05:55;8.40;99.90
27224;DHT22;14965;50.660;13.226;2022-11-15T09:08:23;8.50;99.90
27224;DHT22;14965;50.660;13.226;2022-11-15T09:10:49;8.60;99.90
27224;DHT22;14965;50.660;13.226;2022-11-15T09:13:15;8.60;99.90
27224;DHT22;14965;50.660;13.226;2022-11-15T09:15:43;8.80;99.90
27224;DHT22;14965;50.660;13.226;2022-11-15T09:18:09;8.80;99.90
27224;DHT22;14965;50.660;13.226;2022-11-15T09:20:35;8.90;99.90
27224;DHT22;14965;50.660;13.226;2022-11-15T09:23:04;9.00;99.90
27224;DHT22;14965;50.660;13.226;2022-11-15T09:25:31;9.20;99.90
27224;DHT22;14965;50.660;13.226;2022-11-15T09:28:05;9.20;99.90
27224;DHT22;14965;50.660;13.226;2022-11-15T09:30:32;9.30;99.90
27224;DHT22;14965;50.660;13.226;2022-11-15T09:33:06;9.40;99.90
27224;DHT22;14965;50.660;13.226;2022-11-15T09:35:32;9.50;99.90
27224;DHT22;14965;50.660;13.226;2022-11-15T09:37:58;9.50;99.90
27224;DHT22;14965;50.660;13.226;2022-11-15T09:40:26;9.60;99.90
27224;DHT22;14965;50.660;13.226;2022-11-15T09:43:08;9.70;99.90
27224;DHT22;14965;50.660;13.226;2022-11-15T09:45:57;9.80;99.90
27224;DHT22;14965;50.660;13.226;2022-11-15T09:48:48;9.90;99.90
27224;DHT22;14965;50.660;13.226;2022-11-15T09:51:24;10.00;99.90
27224;DHT22;14965;50.660;13.226;2022-11-15T09:54:00;10.10;99.90
27224;DHT22;14965;50.660;13.226;2022-11-15T09:56:31;10.20;99.90
27224;DHT22;14965;50.660;13.226;2022-11-15T09:59:15;10.30;99.90
27224;DHT22;14965;50.660;13.226;2022-11-15T10:01:58;10.40;99.90
27224;DHT22;14965;50.660;13.226;2022-11-15T10:04:37;10.50;99.90
27224;DHT22;14965;50.660;13.226;2022-11-15T10:07:11;10.50;99.90
27224;DHT22;14965;50.660;13.226;2022-11-15T10:09:44;10.60;99.90
27224;DHT22;14965;50.660;13.226;2022-11-15T10:12:14;10.60;99.90
27224;DHT22;14965;50.660;13.226;2022-11-15T10:14:41;10.70;99.90
27224;DHT22;14965;50.660;13.226;2022-11-15T10:17:39;10.70;99.90
27224;DHT22;14965;50.660;13.226;2022-11-15T10:20:24;10.80;99.90
27224;DHT22;14965;50.660;13.226;2022-11-15T10:22:53;10.90;99.90
27224;DHT22;14965;50.660;13.226;2022-11-15T10:25:24;10.90;99.90
27224;DHT22;14965;50.660;13.226;2022-11-15T10:27:56;10.90;99.90
27224;DHT22;14965;50.660;13.226;2022-11-15T10:30:32;11.00;99.90
27224;DHT22;14965;50.660;13.226;2022-11-15T10:33:14;11.00;99.90
27224;DHT22;14965;50.660;13.226;2022-11-15T10:35:47;11.00;99.90
27224;DHT22;14965;50.660;13.226;2022-11-15T10:38:13;11.10;99.90
27224;DHT22;14965;50.660;13.226;2022-11-15T10:40:40;11.10;99.90
27224;DHT22;14965;50.660;13.226;2022-11-15T10:43:14;11.10;99.90
27224;DHT22;14965;50.660;13.226;2022-11-15T10:45:42;11.10;99.90
27224;DHT22;14965;50.660;13.226;2022-11-15T10:48:21;11.10;99.90
27224;DHT22;14965;50.660;13.226;2022-11-15T10:50:51;11.20;99.90
27224;DHT22;14965;50.660;13.226;2022-11-15T10:53:26;11.20;99.90
27224;DHT22;14965;50.660;13.226;2022-11-15T10:55:57;11.30;99.90
27224;DHT22;14965;50.660;13.226;2022-11-15T10:58:36;11.30;99.90
27224;DHT22;14965;50.660;13.226;2022-11-15T11:01:12;11.40;99.90
27224;DHT22;14965;50.660;13.226;2022-11-15T11:03:44;11.50;99.90
27224;DHT22;14965;50.660;13.226;2022-11-15T11:06:24;11.60;99.90
27224;DHT22;14965;50.660;13.226;2022-11-15T11:08:56;11.70;99.90
27224;DHT22;14965;50.660;13.226;2022-11-15T11:11:24;11.70;99.90
27224;DHT22;14965;50.660;13.226;2022-11-15T11:13:50;11.80;99.90
27224;DHT22;14965;50.660;13.226;2022-11-15T11:16:34;11.80;99.90
27224;DHT22;14965;50.660;13.226;2022-11-15T11:19:44;11.90;99.90
27224;DHT22;14965;50.660;13.226;2022-11-15T11:22:22;12.00;99.90
27224;DHT22;14965;50.660;13.226;2022-11-15T11:25:03;12.10;99.90
27224;DHT22;14965;50.660;13.226;2022-11-15T11:27:42;12.10;99.90
27224;DHT22;14965;50.660;13.226;2022-11-15T11:30:33;12.20;99.90
27224;DHT22;14965;50.660;13.226;2022-11-15T11:33:14;12.20;99.90
27224;DHT22;14965;50.660;13.226;2022-11-15T11:35:53;12.20;99.90
27224;DHT22;14965;50.660;13.226;2022-11-15T11:38:53;12.20;99.90
27224;DHT22;14965;50.660;13.226;2022-11-15T11:41:46;12.20;99.90
27224;DHT22;14965;50.660;13.226;2022-11-15T11:44:28;12.30;99.90
27224;DHT22;14965;50.660;13.226;2022-11-15T11:47:00;12.30;99.90
27224;DHT22;14965;50.660;13.226;2022-11-15T11:49:34;12.40;99.90
27224;DHT22;14965;50.660;13.226;2022-11-15T11:52:11;12.40;99.90
27224;DHT22;14965;50.660;13.226;2022-11-15T11:54:49;12.50;99.90
27224;DHT22;14965;50.660;13.226;2022-11-15T11:57:30;12.50;99.90
27224;DHT22;14965;50.660;13.226;2022-11-15T12:00:12;12.50;99.90
27224;DHT22;14965;50.660;13.226;2022-11-15T12:02:46;12.50;99.90
27224;DHT22;14965;50.660;13.226;2022-11-15T12:05:22;12.50;99.90
27224;DHT22;14965;50.660;13.226;2022-11-15T12:07:54;12.50;99.90
27224;DHT22;14965;50.660;13.226;2022-11-15T12:10:39;12.50;99.90
27224;DHT22;14965;50.660;13.226;2022-11-15T12:13:15;12.60;99.90
27224;DHT22;14965;50.660;13.226;2022-11-15T12:15:47;12.60;99.90
27224;DHT22;14965;50.660;13.226;2022-11-15T12:18:21;12.60;99.90
27224;DHT22;14965;50.660;13.226;2022-11-15T12:20:52;12.60;99.90
27224;DHT22;14965;50.660;13.226;2022-11-15T12:23:27;12.50;99.90
27224;DHT22;14965;50.660;13.226;2022-11-15T12:26:01;12.50;99.90
27224;DHT22;14965;50.660;13.226;2022-11-15T12:28:35;12.50;99.90
27224;DHT22;14965;50.660;13.226;2022-11-15T12:31:12;12.50;99.90
27224;DHT22;14965;50.660;13.226;2022-11-15T12:33:45;12.50;99.90
27224;DHT22;14965;50.660;13.226;2022-11-15T12:36:30;12.50;99.90
27224;DHT22;14965;50.660;13.226;2022-11-15T12:39:02;12.40;99.90
27224;DHT22;14965;50.660;13.226;2022-11-15T12:41:32;12.30;99.90
27224;DHT22;14965;50.660;13.226;2022-11-15T12:44:00;12.30;99.90
27224;DHT22;14965;50.660;13.226;2022-11-15T12:47:00;12.30;99.90
27224;DHT22;14965;50.660;13.226;2022-11-15T12:49:45;12.30;99.90
27224;DHT22;14965;50.660;13.226;2022-11-15T12:52:12;12.20;99.90
27224;DHT22;14965;50.660;13.226;2022-11-15T12:54:56;12.10;99.90
27224;DHT22;14965;50.660;13.226;2022-11-15T12:57:39;12.00;99.90
27224;DHT22;14965;50.660;13.226;2022-11-15T13:03:25;12.00;99.90
27224;DHT22;14965;50.660;13.226;2022-11-15T13:06:01;11.90;99.90
27224;DHT22;14965;50.660;13.226;2022-11-15T13:08:45;12.00;99.90
27224;DHT22;14965;50.660;13.226;2022-11-15T13:14:45;11.80;99.90
27224;DHT22;14965;50.660;13.226;2022-11-15T13:17:32;11.80;99.90
27224;DHT22;14965;50.660;13.226;2022-11-15T13:22:46;11.80;99.90
27224;DHT22;14965;50.660;13.226;2022-11-15T13:25:21;11.70;99.90
27224;DHT22;14965;50.660;13.226;2022-11-15T13:28:00;11.70;99.90
27224;DHT22;14965;50.660;13.226;2022-11-15T13:30:30;11.60;99.90
27224;DHT22;14965;50.660;13.226;2022-11-15T13:32:57;11.60;99.90
27224;DHT22;14965;50.660;13.226;2022-11-15T13:35:28;11.50;99.90
27224;DHT22;14965;50.660;13.226;2022-11-15T13:38:03;11.50;99.90
27224;DHT22;14965;50.660;13.226;2022-11-15T13:40:35;11.50;99.90
27224;DHT22;14965;50.660;13.226;2022-11-15T13:43:23;11.40;99.90
27224;DHT22;14965;50.660;13.226;2022-11-15T13:46:11;11.40;99.90
27224;DHT22;14965;50.660;13.226;2022-11-15T13:48:39;11.40;99.90
27224;DHT22;14965;50.660;13.226;2022-11-15T13:51:09;11.30;99.90
27224;DHT22;14965;50.660;13.226;2022-11-15T13:53:42;11.30;99.90
27224;DHT22;14965;50.660;13.226;2022-11-15T13:56:11;11.20;99.90
27224;DHT22;14965;50.660;13.226;2022-11-15T13:58:38;11.20;99.90
27224;DHT22;14965;50.660;13.226;2022-11-15T14:01:05;11.20;99.90
27224;DHT22;14965;50.660;13.226;2022-11-15T14:03:37;11.20;99.90
27224;DHT22;14965;50.660;13.226;2022-11-15T14:06:13;11.10;99.90
27224;DHT22;14965;50.660;13.226;2022-11-15T14:08:42;11.10;99.90
27224;DHT22;14965;50.660;13.226;2022-11-15T14:11:24;11.00;99.90
27224;DHT22;14965;50.660;13.226;2022-11-15T14:14:08;11.00;99.90
27224;DHT22;14965;50.660;13.226;2022-11-15T14:16:40;11.00;99.90
27224;DHT22;14965;50.660;13.226;2022-11-15T14:19:11;11.00;99.90
27224;DHT22;14965;50.660;13.226;2022-11-15T14:24:44;10.90;99.90
27224;DHT22;14965;50.660;13.226;2022-11-15T14:27:17;10.80;99.90
27224;DHT22;14965;50.660;13.226;2022-11-15T14:29:44;10.80;99.90
27224;DHT22;14965;50.660;13.226;2022-11-15T14:32:13;10.80;99.90
27224;DHT22;14965;50.660;13.226;2022-11-15T14:34:42;10.70;99.90
27224;DHT22;14965;50.660;13.226;2022-11-15T14:37:19;10.60;99.90
27224;DHT22;14965;50.660;13.226;2022-11-15T14:39:47;10.60;99.90
27224;DHT22;14965;50.660;13.226;2022-11-15T14:42:13;10.60;99.90
27224;DHT22;14965;50.660;13.226;2022-11-15T14:44:39;10.50;99.90
27224;DHT22;14965;50.660;13.226;2022-11-15T14:47:05;10.40;99.90
27224;DHT22;14965;50.660;13.226;2022-11-15T14:49:31;10.30;99.90
27224;DHT22;14965;50.660;13.226;2022-11-15T14:51:58;10.20;99.90
27224;DHT22;14965;50.660;13.226;2022-11-15T14:54:24;10.20;99.90
27224;DHT22;14965;50.660;13.226;2022-11-15T14:56:51;10.10;99.90
27224;DHT22;14965;50.660;13.226;2022-11-15T14:59:17;10.00;99.90
27224;DHT22;14965;50.660;13.226;2022-11-15T15:01:43;10.00;99.90
27224;DHT22;14965;50.660;13.226;2022-11-15T15:04:10;9.90;99.90
27224;DHT22;14965;50.660;13.226;2022-11-15T15:06:36;9.80;99.90
27224;DHT22;14965;50.660;13.226;2022-11-15T15:09:04;9.80;99.90
27224;DHT22;14965;50.660;13.226;2022-11-15T15:11:33;9.70;99.90
27224;DHT22;14965;50.660;13.226;2022-11-15T15:13:59;9.60;99.90
27224;DHT22;14965;50.660;13.226;2022-11-15T15:16:28;9.50;99.90
27224;DHT22;14965;50.660;13.226;2022-11-15T15:18:56;9.40;99.90
27224;DHT22;14965;50.660;13.226;2022-11-15T15:21:24;9.30;99.90
27224;DHT22;14965;50.660;13.226;2022-11-15T15:23:51;9.20;99.90
27224;DHT22;14965;50.660;13.226;2022-11-15T15:26:19;9.20;99.90
27224;DHT22;14965;50.660;13.226;2022-11-15T15:28:45;9.10;99.90
27224;DHT22;14965;50.660;13.226;2022-11-15T15:31:12;9.00;99.90
27224;DHT22;14965;50.660;13.226;2022-11-15T15:33:38;8.90;99.90
27224;DHT22;14965;50.660;13.226;2022-11-15T15:36:04;8.80;99.90
27224;DHT22;14965;50.660;13.226;2022-11-15T15:38:34;8.80;99.90
27224;DHT22;14965;50.660;13.226;2022-11-15T15:41:01;8.80;99.90
27224;DHT22;14965;50.660;13.226;2022-11-15T15:43:31;8.70;99.90
27224;DHT22;14965;50.660;13.226;2022-11-15T15:46:00;8.60;99.90
27224;DHT22;14965;50.660;13.226;2022-11-15T15:48:31;8.50;99.90
27224;DHT22;14965;50.660;13.226;2022-11-15T15:51:06;8.50;99.90
27224;DHT22;14965;50.660;13.226;2022-11-15T15:53:39;8.40;99.90
27224;DHT22;14965;50.660;13.226;2022-11-15T15:56:25;8.30;99.90
27224;DHT22;14965;50.660;13.226;2022-11-15T15:59:17;8.20;99.90
27224;DHT22;14965;50.660;13.226;2022-11-15T16:01:51;8.10;99.90